Startpagina
METAR-TAF:

METAR-TAF

Vliegvelden :

Palmer, Alaska, Verenigde Staten

breedte: 61-36N, lengte: 149-05W, hoogte: 74 m

Actueel weer

Dit bericht is 20 minuten geleden gemaakt, om 23:53 UTC
Wind 9 kt uit het noordnoordoosten
Temperatuur 8°C
Vochtigheid 49%
Druk 1002 hPa
Zicht: 16.1 km
Onbewolkt

METAR: PAAQ 212353Z 02009KT 10SM CLR 08/M02 A2958 RMK AO2 SLP020 T00781017 10078 20033 58017

Tijdstip: 16:13 (00:13 UTC)

Verwachting

Dit bericht is 53 minuten geleden gemaakt, om 23:20 UTC
Verwachting geldig van 22 om 00 UTC tot 22 om 24 UTC
Wind 7 kt uit het noordoosten
Zicht: 10 km
Verspreide wolken op 8000 ft
Geheel bewolkt op 12000 ft
Van 22 om 1000 UTC
Wind 15 kt uit het noordoosten met uitschieters tot 25 kt
Zicht: 10 km
Gebroken wolken op 7000 ft
Van 22 om 2200 UTC
Wind 10 kt uit het oosten
Zicht: 10 km
Gebroken wolken op 9000 ft

TAF: PAAQ 212320Z 2200/2224 04007KT P6SM SCT080 OVC120 FM221000 05015G25KT P6SM BKN070 FM222200 10010KT P6SM BKN090

Waarnemingen en weersverwachtingen van meer dan 4000 vliegvelden (METAR en TAF).

De beschikbare stations zijn de gele en rode punten op de kaart.

Ga met uw muis naar het station om de naam te zien.

Klik dan om waarnemingen en weersverwachtingen te zien.

kaart wijzigen: klik op de groene knoppen met een zwart kruis om in te zoomen, op de groene knop met een streepje om uit te zoomen of op de groene pijlen voor aangrenzende kaarten.


METAR-TAF: